sensor_id;sensor_type;location;lat;lon;timestamp;temperature;humidity
22966;DHT22;11649;48.090;9.754;2023-04-15T00:01:09;5.40;99.90
22966;DHT22;11649;48.090;9.754;2023-04-15T00:03:37;5.40;99.90
22966;DHT22;11649;48.090;9.754;2023-04-15T00:06:04;5.40;99.90
22966;DHT22;11649;48.090;9.754;2023-04-15T00:08:31;5.40;99.90
22966;DHT22;11649;48.090;9.754;2023-04-15T00:10:58;5.40;99.90
22966;DHT22;11649;48.090;9.754;2023-04-15T00:13:28;5.40;99.90
22966;DHT22;11649;48.090;9.754;2023-04-15T00:15:55;5.40;99.90
22966;DHT22;11649;48.090;9.754;2023-04-15T00:18:23;5.30;99.90
22966;DHT22;11649;48.090;9.754;2023-04-15T00:20:50;5.20;99.90
22966;DHT22;11649;48.090;9.754;2023-04-15T00:23:18;5.20;99.90
22966;DHT22;11649;48.090;9.754;2023-04-15T00:25:45;5.10;99.90
22966;DHT22;11649;48.090;9.754;2023-04-15T00:28:12;5.10;99.90
22966;DHT22;11649;48.090;9.754;2023-04-15T00:30:39;5.10;99.90
22966;DHT22;11649;48.090;9.754;2023-04-15T00:33:06;5.10;99.90
22966;DHT22;11649;48.090;9.754;2023-04-15T00:35:33;5.10;99.90
22966;DHT22;11649;48.090;9.754;2023-04-15T00:38:00;5.10;99.90
22966;DHT22;11649;48.090;9.754;2023-04-15T00:40:27;5.00;99.90
22966;DHT22;11649;48.090;9.754;2023-04-15T00:42:53;5.00;99.90
22966;DHT22;11649;48.090;9.754;2023-04-15T00:45:20;5.00;99.90
22966;DHT22;11649;48.090;9.754;2023-04-15T00:47:47;4.90;99.90
22966;DHT22;11649;48.090;9.754;2023-04-15T00:50:14;4.90;99.90
22966;DHT22;11649;48.090;9.754;2023-04-15T00:52:41;4.80;99.90
22966;DHT22;11649;48.090;9.754;2023-04-15T00:55:08;4.80;99.90
22966;DHT22;11649;48.090;9.754;2023-04-15T00:57:35;4.80;99.90
22966;DHT22;11649;48.090;9.754;2023-04-15T01:00:03;4.50;99.90
22966;DHT22;11649;48.090;9.754;2023-04-15T01:02:31;4.40;99.90
22966;DHT22;11649;48.090;9.754;2023-04-15T01:04:59;4.40;99.90
22966;DHT22;11649;48.090;9.754;2023-04-15T01:07:26;4.40;99.90
22966;DHT22;11649;48.090;9.754;2023-04-15T01:09:53;4.10;99.90
22966;DHT22;11649;48.090;9.754;2023-04-15T01:12:20;4.10;99.90
22966;DHT22;11649;48.090;9.754;2023-04-15T01:14:47;4.10;99.90
22966;DHT22;11649;48.090;9.754;2023-04-15T01:17:13;4.30;99.90
22966;DHT22;11649;48.090;9.754;2023-04-15T01:19:40;4.30;99.90
22966;DHT22;11649;48.090;9.754;2023-04-15T01:22:07;4.30;99.90
22966;DHT22;11649;48.090;9.754;2023-04-15T01:24:35;4.40;99.90
22966;DHT22;11649;48.090;9.754;2023-04-15T01:27:03;4.50;99.90
22966;DHT22;11649;48.090;9.754;2023-04-15T01:29:33;4.50;99.90
22966;DHT22;11649;48.090;9.754;2023-04-15T01:32:00;4.50;99.90
22966;DHT22;11649;48.090;9.754;2023-04-15T01:34:27;4.50;99.90
22966;DHT22;11649;48.090;9.754;2023-04-15T01:36:54;4.40;99.90
22966;DHT22;11649;48.090;9.754;2023-04-15T01:39:21;4.30;99.90
22966;DHT22;11649;48.090;9.754;2023-04-15T01:41:48;4.30;99.90
22966;DHT22;11649;48.090;9.754;2023-04-15T01:44:14;4.30;99.90
22966;DHT22;11649;48.090;9.754;2023-04-15T01:46:42;4.30;99.90
22966;DHT22;11649;48.090;9.754;2023-04-15T01:49:08;4.40;99.90
22966;DHT22;11649;48.090;9.754;2023-04-15T01:51:35;4.40;99.90
22966;DHT22;11649;48.090;9.754;2023-04-15T01:54:02;4.40;99.90
22966;DHT22;11649;48.090;9.754;2023-04-15T01:56:29;4.40;99.90
22966;DHT22;11649;48.090;9.754;2023-04-15T01:58:56;4.40;99.90
22966;DHT22;11649;48.090;9.754;2023-04-15T02:01:23;4.40;99.90
22966;DHT22;11649;48.090;9.754;2023-04-15T02:03:50;4.30;99.90
22966;DHT22;11649;48.090;9.754;2023-04-15T02:06:17;4.30;99.90
22966;DHT22;11649;48.090;9.754;2023-04-15T02:08:44;4.30;99.90
22966;DHT22;11649;48.090;9.754;2023-04-15T02:11:11;4.20;99.90
22966;DHT22;11649;48.090;9.754;2023-04-15T02:13:38;4.20;99.90
22966;DHT22;11649;48.090;9.754;2023-04-15T02:16:17;4.20;99.90
22966;DHT22;11649;48.090;9.754;2023-04-15T02:18:47;4.20;99.90
22966;DHT22;11649;48.090;9.754;2023-04-15T02:21:14;4.20;99.90
22966;DHT22;11649;48.090;9.754;2023-04-15T02:23:41;4.20;99.90
22966;DHT22;11649;48.090;9.754;2023-04-15T02:26:09;4.00;99.90
22966;DHT22;11649;48.090;9.754;2023-04-15T02:28:36;3.90;99.90
22966;DHT22;11649;48.090;9.754;2023-04-15T02:31:06;3.90;99.90
22966;DHT22;11649;48.090;9.754;2023-04-15T02:33:33;3.90;99.90
22966;DHT22;11649;48.090;9.754;2023-04-15T02:36:01;4.00;99.90
22966;DHT22;11649;48.090;9.754;2023-04-15T02:38:27;4.00;99.90
22966;DHT22;11649;48.090;9.754;2023-04-15T02:40:54;3.90;99.90
22966;DHT22;11649;48.090;9.754;2023-04-15T02:43:22;3.90;99.90
22966;DHT22;11649;48.090;9.754;2023-04-15T02:45:49;3.90;99.90
22966;DHT22;11649;48.090;9.754;2023-04-15T02:48:16;3.80;99.90
22966;DHT22;11649;48.090;9.754;2023-04-15T02:50:45;3.80;99.90
22966;DHT22;11649;48.090;9.754;2023-04-15T02:53:13;3.80;99.90
22966;DHT22;11649;48.090;9.754;2023-04-15T02:55:40;3.70;99.90
22966;DHT22;11649;48.090;9.754;2023-04-15T02:58:08;3.70;99.90
22966;DHT22;11649;48.090;9.754;2023-04-15T03:00:35;3.70;99.90
22966;DHT22;11649;48.090;9.754;2023-04-15T03:03:03;3.70;99.90
22966;DHT22;11649;48.090;9.754;2023-04-15T03:05:30;3.80;99.90
22966;DHT22;11649;48.090;9.754;2023-04-15T03:07:57;3.80;99.90
22966;DHT22;11649;48.090;9.754;2023-04-15T03:10:24;3.80;99.90
22966;DHT22;11649;48.090;9.754;2023-04-15T03:12:51;3.80;99.90
22966;DHT22;11649;48.090;9.754;2023-04-15T03:15:18;3.80;99.90
22966;DHT22;11649;48.090;9.754;2023-04-15T03:17:44;3.80;99.90
22966;DHT22;11649;48.090;9.754;2023-04-15T03:20:11;3.80;99.90
22966;DHT22;11649;48.090;9.754;2023-04-15T03:22:38;3.90;99.90
22966;DHT22;11649;48.090;9.754;2023-04-15T03:25:05;3.80;99.90
22966;DHT22;11649;48.090;9.754;2023-04-15T03:27:33;3.80;99.90
22966;DHT22;11649;48.090;9.754;2023-04-15T03:30:00;3.80;99.90
22966;DHT22;11649;48.090;9.754;2023-04-15T03:32:27;3.80;99.90
22966;DHT22;11649;48.090;9.754;2023-04-15T03:34:53;3.70;99.90
22966;DHT22;11649;48.090;9.754;2023-04-15T03:37:20;3.70;99.90
22966;DHT22;11649;48.090;9.754;2023-04-15T03:39:47;3.70;99.90
22966;DHT22;11649;48.090;9.754;2023-04-15T03:42:14;3.60;99.90
22966;DHT22;11649;48.090;9.754;2023-04-15T03:44:41;3.60;99.90
22966;DHT22;11649;48.090;9.754;2023-04-15T03:47:07;3.60;99.90
22966;DHT22;11649;48.090;9.754;2023-04-15T03:49:35;3.60;99.90
22966;DHT22;11649;48.090;9.754;2023-04-15T03:52:02;3.70;99.90
22966;DHT22;11649;48.090;9.754;2023-04-15T03:54:29;3.70;99.90
22966;DHT22;11649;48.090;9.754;2023-04-15T03:56:56;3.70;99.90
22966;DHT22;11649;48.090;9.754;2023-04-15T03:59:23;3.60;99.90
22966;DHT22;11649;48.090;9.754;2023-04-15T04:01:49;3.50;99.90
22966;DHT22;11649;48.090;9.754;2023-04-15T04:04:17;3.30;99.90
22966;DHT22;11649;48.090;9.754;2023-04-15T04:06:43;3.30;99.90
22966;DHT22;11649;48.090;9.754;2023-04-15T04:09:10;3.40;99.90
22966;DHT22;11649;48.090;9.754;2023-04-15T04:11:37;3.40;99.90
22966;DHT22;11649;48.090;9.754;2023-04-15T04:14:04;3.40;99.90
22966;DHT22;11649;48.090;9.754;2023-04-15T04:16:31;3.50;99.90
22966;DHT22;11649;48.090;9.754;2023-04-15T04:18:58;3.40;99.90
22966;DHT22;11649;48.090;9.754;2023-04-15T04:21:25;3.50;99.90
22966;DHT22;11649;48.090;9.754;2023-04-15T04:23:52;3.50;99.90
22966;DHT22;11649;48.090;9.754;2023-04-15T04:26:19;3.50;99.90
22966;DHT22;11649;48.090;9.754;2023-04-15T04:28:46;3.50;99.90
22966;DHT22;11649;48.090;9.754;2023-04-15T04:31:12;3.60;99.90
22966;DHT22;11649;48.090;9.754;2023-04-15T04:33:39;3.60;99.90
22966;DHT22;11649;48.090;9.754;2023-04-15T04:36:06;3.60;99.90
22966;DHT22;11649;48.090;9.754;2023-04-15T04:38:33;3.60;99.90
22966;DHT22;11649;48.090;9.754;2023-04-15T04:41:00;3.70;99.90
22966;DHT22;11649;48.090;9.754;2023-04-15T04:43:26;3.60;99.90
22966;DHT22;11649;48.090;9.754;2023-04-15T04:45:53;3.60;99.90
22966;DHT22;11649;48.090;9.754;2023-04-15T04:48:20;3.60;99.90
22966;DHT22;11649;48.090;9.754;2023-04-15T04:50:47;3.60;99.90
22966;DHT22;11649;48.090;9.754;2023-04-15T04:53:14;3.60;99.90
22966;DHT22;11649;48.090;9.754;2023-04-15T04:55:41;3.60;99.90
22966;DHT22;11649;48.090;9.754;2023-04-15T04:58:08;3.60;99.90
22966;DHT22;11649;48.090;9.754;2023-04-15T05:00:35;3.70;99.90
22966;DHT22;11649;48.090;9.754;2023-04-15T05:03:03;3.70;99.90
22966;DHT22;11649;48.090;9.754;2023-04-15T05:05:30;3.70;99.90
22966;DHT22;11649;48.090;9.754;2023-04-15T05:07:57;3.70;99.90
22966;DHT22;11649;48.090;9.754;2023-04-15T05:10:24;3.70;99.90
22966;DHT22;11649;48.090;9.754;2023-04-15T05:12:51;3.70;99.90
22966;DHT22;11649;48.090;9.754;2023-04-15T05:15:18;3.70;99.90
22966;DHT22;11649;48.090;9.754;2023-04-15T05:17:45;3.80;99.90
22966;DHT22;11649;48.090;9.754;2023-04-15T05:20:12;3.70;99.90
22966;DHT22;11649;48.090;9.754;2023-04-15T05:22:39;3.80;99.90
22966;DHT22;11649;48.090;9.754;2023-04-15T05:25:06;3.80;99.90
22966;DHT22;11649;48.090;9.754;2023-04-15T05:27:34;3.70;99.90
22966;DHT22;11649;48.090;9.754;2023-04-15T05:30:01;3.70;99.90
22966;DHT22;11649;48.090;9.754;2023-04-15T05:32:28;3.80;99.90
22966;DHT22;11649;48.090;9.754;2023-04-15T05:34:54;3.80;99.90
22966;DHT22;11649;48.090;9.754;2023-04-15T05:37:21;3.80;99.90
22966;DHT22;11649;48.090;9.754;2023-04-15T05:39:48;3.70;99.90
22966;DHT22;11649;48.090;9.754;2023-04-15T05:42:15;3.70;99.90
22966;DHT22;11649;48.090;9.754;2023-04-15T05:44:42;3.70;99.90
22966;DHT22;11649;48.090;9.754;2023-04-15T05:47:09;3.70;99.90
22966;DHT22;11649;48.090;9.754;2023-04-15T05:49:36;3.60;99.90
22966;DHT22;11649;48.090;9.754;2023-04-15T05:52:03;3.70;99.90
22966;DHT22;11649;48.090;9.754;2023-04-15T05:54:30;3.60;99.90
22966;DHT22;11649;48.090;9.754;2023-04-15T05:56:57;3.80;99.90
22966;DHT22;11649;48.090;9.754;2023-04-15T05:59:24;3.90;99.90
22966;DHT22;11649;48.090;9.754;2023-04-15T06:01:51;3.90;99.90
22966;DHT22;11649;48.090;9.754;2023-04-15T06:04:18;4.00;99.90
22966;DHT22;11649;48.090;9.754;2023-04-15T06:06:45;4.20;99.90
22966;DHT22;11649;48.090;9.754;2023-04-15T06:09:12;4.30;99.90
22966;DHT22;11649;48.090;9.754;2023-04-15T06:11:39;4.40;99.90
22966;DHT22;11649;48.090;9.754;2023-04-15T06:14:06;4.60;99.90
22966;DHT22;11649;48.090;9.754;2023-04-15T06:16:33;4.80;99.90
22966;DHT22;11649;48.090;9.754;2023-04-15T06:19:02;5.00;99.90
22966;DHT22;11649;48.090;9.754;2023-04-15T06:21:29;5.20;99.90
22966;DHT22;11649;48.090;9.754;2023-04-15T06:23:58;5.30;99.90
22966;DHT22;11649;48.090;9.754;2023-04-15T06:26:27;5.30;99.90
22966;DHT22;11649;48.090;9.754;2023-04-15T06:28:53;5.30;99.90
22966;DHT22;11649;48.090;9.754;2023-04-15T06:31:21;5.50;99.90
22966;DHT22;11649;48.090;9.754;2023-04-15T06:33:48;5.60;99.90
22966;DHT22;11649;48.090;9.754;2023-04-15T06:36:14;5.70;99.90
22966;DHT22;11649;48.090;9.754;2023-04-15T06:38:41;5.90;99.90
22966;DHT22;11649;48.090;9.754;2023-04-15T06:41:08;6.00;99.90
22966;DHT22;11649;48.090;9.754;2023-04-15T06:43:35;6.00;99.90
22966;DHT22;11649;48.090;9.754;2023-04-15T06:46:02;6.10;99.90
22966;DHT22;11649;48.090;9.754;2023-04-15T06:48:29;6.30;99.90
22966;DHT22;11649;48.090;9.754;2023-04-15T06:50:56;6.10;99.90
22966;DHT22;11649;48.090;9.754;2023-04-15T06:53:25;6.10;99.90
22966;DHT22;11649;48.090;9.754;2023-04-15T06:55:53;6.20;99.90
22966;DHT22;11649;48.090;9.754;2023-04-15T06:58:20;6.20;99.90
22966;DHT22;11649;48.090;9.754;2023-04-15T07:00:47;6.20;99.90
22966;DHT22;11649;48.090;9.754;2023-04-15T07:03:14;6.10;99.90
22966;DHT22;11649;48.090;9.754;2023-04-15T07:05:41;6.10;99.90
22966;DHT22;11649;48.090;9.754;2023-04-15T07:08:08;6.00;99.90
22966;DHT22;11649;48.090;9.754;2023-04-15T07:10:35;6.00;99.90
22966;DHT22;11649;48.090;9.754;2023-04-15T07:13:01;6.00;99.90
22966;DHT22;11649;48.090;9.754;2023-04-15T07:15:28;6.10;99.90
22966;DHT22;11649;48.090;9.754;2023-04-15T07:17:55;6.20;99.90
22966;DHT22;11649;48.090;9.754;2023-04-15T07:20:22;6.30;99.90
22966;DHT22;11649;48.090;9.754;2023-04-15T07:22:48;6.40;99.90
22966;DHT22;11649;48.090;9.754;2023-04-15T07:25:15;6.50;99.90
22966;DHT22;11649;48.090;9.754;2023-04-15T07:27:43;6.50;99.90
22966;DHT22;11649;48.090;9.754;2023-04-15T07:30:10;6.60;99.90
22966;DHT22;11649;48.090;9.754;2023-04-15T07:32:38;6.70;99.90
22966;DHT22;11649;48.090;9.754;2023-04-15T07:35:05;6.80;99.90
22966;DHT22;11649;48.090;9.754;2023-04-15T07:37:31;6.80;99.90
22966;DHT22;11649;48.090;9.754;2023-04-15T07:39:59;6.80;99.90
22966;DHT22;11649;48.090;9.754;2023-04-15T07:42:26;6.80;99.90
22966;DHT22;11649;48.090;9.754;2023-04-15T07:44:53;6.80;99.90
22966;DHT22;11649;48.090;9.754;2023-04-15T07:47:20;6.90;99.90
22966;DHT22;11649;48.090;9.754;2023-04-15T07:49:47;6.90;99.90
22966;DHT22;11649;48.090;9.754;2023-04-15T07:52:14;7.10;99.90
22966;DHT22;11649;48.090;9.754;2023-04-15T07:54:41;7.20;99.90
22966;DHT22;11649;48.090;9.754;2023-04-15T07:57:08;7.20;99.90
22966;DHT22;11649;48.090;9.754;2023-04-15T07:59:34;7.30;99.90
22966;DHT22;11649;48.090;9.754;2023-04-15T08:02:02;7.40;99.90
22966;DHT22;11649;48.090;9.754;2023-04-15T08:04:29;7.50;99.90
22966;DHT22;11649;48.090;9.754;2023-04-15T08:06:56;7.50;99.90
22966;DHT22;11649;48.090;9.754;2023-04-15T08:09:23;7.60;99.90
22966;DHT22;11649;48.090;9.754;2023-04-15T08:11:50;7.40;99.90
22966;DHT22;11649;48.090;9.754;2023-04-15T08:14:17;7.60;99.90
22966;DHT22;11649;48.090;9.754;2023-04-15T08:16:44;7.80;99.90
22966;DHT22;11649;48.090;9.754;2023-04-15T08:19:11;7.80;99.90
22966;DHT22;11649;48.090;9.754;2023-04-15T08:21:37;7.80;99.90
22966;DHT22;11649;48.090;9.754;2023-04-15T08:24:05;7.90;99.90
22966;DHT22;11649;48.090;9.754;2023-04-15T08:26:32;7.90;99.90
22966;DHT22;11649;48.090;9.754;2023-04-15T08:28:59;8.00;99.90
22966;DHT22;11649;48.090;9.754;2023-04-15T08:31:28;8.10;99.90
22966;DHT22;11649;48.090;9.754;2023-04-15T08:33:56;8.20;99.90
22966;DHT22;11649;48.090;9.754;2023-04-15T08:36:23;8.30;99.90
22966;DHT22;11649;48.090;9.754;2023-04-15T08:38:49;8.30;99.90
22966;DHT22;11649;48.090;9.754;2023-04-15T08:41:21;8.50;99.90
22966;DHT22;11649;48.090;9.754;2023-04-15T08:43:56;8.60;99.20
22966;DHT22;11649;48.090;9.754;2023-04-15T08:46:23;8.70;99.90
22966;DHT22;11649;48.090;9.754;2023-04-15T08:48:50;8.70;99.90
22966;DHT22;11649;48.090;9.754;2023-04-15T08:51:18;9.00;99.90
22966;DHT22;11649;48.090;9.754;2023-04-15T08:53:45;9.00;99.90
22966;DHT22;11649;48.090;9.754;2023-04-15T08:56:14;9.00;99.80
22966;DHT22;11649;48.090;9.754;2023-04-15T08:58:45;9.30;98.70
22966;DHT22;11649;48.090;9.754;2023-04-15T09:01:13;9.40;99.90
22966;DHT22;11649;48.090;9.754;2023-04-15T09:03:41;9.40;97.90
22966;DHT22;11649;48.090;9.754;2023-04-15T09:06:08;9.50;98.70
22966;DHT22;11649;48.090;9.754;2023-04-15T09:08:35;9.50;99.20
22966;DHT22;11649;48.090;9.754;2023-04-15T09:11:02;9.70;99.30
22966;DHT22;11649;48.090;9.754;2023-04-15T09:13:29;9.80;95.10
22966;DHT22;11649;48.090;9.754;2023-04-15T09:15:56;10.70;97.10
22966;DHT22;11649;48.090;9.754;2023-04-15T09:18:27;9.90;93.20
22966;DHT22;11649;48.090;9.754;2023-04-15T09:20:55;9.90;94.20
22966;DHT22;11649;48.090;9.754;2023-04-15T09:23:23;9.90;92.90
22966;DHT22;11649;48.090;9.754;2023-04-15T09:25:49;9.90;93.00
22966;DHT22;11649;48.090;9.754;2023-04-15T09:28:23;9.90;94.00
22966;DHT22;11649;48.090;9.754;2023-04-15T09:30:54;9.90;92.70
22966;DHT22;11649;48.090;9.754;2023-04-15T09:33:22;9.90;91.70
22966;DHT22;11649;48.090;9.754;2023-04-15T09:35:56;10.00;93.00
22966;DHT22;11649;48.090;9.754;2023-04-15T09:38:24;10.10;91.10
22966;DHT22;11649;48.090;9.754;2023-04-15T09:40:51;10.20;92.70
22966;DHT22;11649;48.090;9.754;2023-04-15T09:43:18;10.30;94.70
22966;DHT22;11649;48.090;9.754;2023-04-15T09:45:52;10.50;89.00
22966;DHT22;11649;48.090;9.754;2023-04-15T09:48:24;10.60;91.80
22966;DHT22;11649;48.090;9.754;2023-04-15T09:50:52;10.50;90.70
22966;DHT22;11649;48.090;9.754;2023-04-15T09:53:21;10.40;92.70
22966;DHT22;11649;48.090;9.754;2023-04-15T09:55:53;10.40;90.60
22966;DHT22;11649;48.090;9.754;2023-04-15T09:58:25;10.50;90.50
22966;DHT22;11649;48.090;9.754;2023-04-15T10:00:54;10.70;86.80
22966;DHT22;11649;48.090;9.754;2023-04-15T10:03:30;10.80;84.90
22966;DHT22;11649;48.090;9.754;2023-04-15T10:05:59;11.00;84.70
22966;DHT22;11649;48.090;9.754;2023-04-15T10:08:28;11.00;79.20
22966;DHT22;11649;48.090;9.754;2023-04-15T10:10:55;10.90;80.70
22966;DHT22;11649;48.090;9.754;2023-04-15T10:13:24;11.00;83.00
22966;DHT22;11649;48.090;9.754;2023-04-15T10:15:59;11.10;80.70
22966;DHT22;11649;48.090;9.754;2023-04-15T10:18:27;11.20;77.30
22966;DHT22;11649;48.090;9.754;2023-04-15T10:20:55;11.30;74.80
22966;DHT22;11649;48.090;9.754;2023-04-15T10:23:22;11.50;78.00
22966;DHT22;11649;48.090;9.754;2023-04-15T10:25:51;11.60;74.80
22966;DHT22;11649;48.090;9.754;2023-04-15T10:28:20;11.60;72.60
22966;DHT22;11649;48.090;9.754;2023-04-15T10:30:48;11.70;78.70
22966;DHT22;11649;48.090;9.754;2023-04-15T10:33:22;11.70;68.10
22966;DHT22;11649;48.090;9.754;2023-04-15T10:35:50;11.80;69.80
22966;DHT22;11649;48.090;9.754;2023-04-15T10:38:37;11.80;69.40
22966;DHT22;11649;48.090;9.754;2023-04-15T10:41:19;12.10;70.40
22966;DHT22;11649;48.090;9.754;2023-04-15T10:43:55;12.00;69.90
22966;DHT22;11649;48.090;9.754;2023-04-15T10:46:34;12.00;73.20
22966;DHT22;11649;48.090;9.754;2023-04-15T10:49:15;12.00;65.50
22966;DHT22;11649;48.090;9.754;2023-04-15T10:51:44;12.00;61.60
22966;DHT22;11649;48.090;9.754;2023-04-15T10:54:36;11.80;62.50
22966;DHT22;11649;48.090;9.754;2023-04-15T10:59:35;11.70;63.20
22966;DHT22;11649;48.090;9.754;2023-04-15T11:02:06;12.00;62.30
22966;DHT22;11649;48.090;9.754;2023-04-15T11:12:55;12.30;60.70
22966;DHT22;11649;48.090;9.754;2023-04-15T11:15:29;12.30;62.20
22966;DHT22;11649;48.090;9.754;2023-04-15T11:17:58;12.10;59.20
22966;DHT22;11649;48.090;9.754;2023-04-15T11:20:25;12.10;58.40
22966;DHT22;11649;48.090;9.754;2023-04-15T11:22:53;12.30;59.30
22966;DHT22;11649;48.090;9.754;2023-04-15T11:25:40;12.40;64.40
22966;DHT22;11649;48.090;9.754;2023-04-15T11:28:07;12.70;60.90
22966;DHT22;11649;48.090;9.754;2023-04-15T11:30:35;12.90;60.10
22966;DHT22;11649;48.090;9.754;2023-04-15T11:33:05;13.10;61.70
22966;DHT22;11649;48.090;9.754;2023-04-15T11:35:32;13.40;56.90
22966;DHT22;11649;48.090;9.754;2023-04-15T11:38:07;13.30;55.30
22966;DHT22;11649;48.090;9.754;2023-04-15T11:40:34;13.30;56.70
22966;DHT22;11649;48.090;9.754;2023-04-15T11:43:16;13.60;55.90
22966;DHT22;11649;48.090;9.754;2023-04-15T11:45:55;13.40;56.00
22966;DHT22;11649;48.090;9.754;2023-04-15T11:48:26;13.30;57.90
22966;DHT22;11649;48.090;9.754;2023-04-15T11:50:54;13.70;59.70
22966;DHT22;11649;48.090;9.754;2023-04-15T11:53:22;14.30;60.80
22966;DHT22;11649;48.090;9.754;2023-04-15T11:55:52;14.40;57.50
22966;DHT22;11649;48.090;9.754;2023-04-15T11:58:21;14.50;58.60
22966;DHT22;11649;48.090;9.754;2023-04-15T12:00:53;14.70;61.90
22966;DHT22;11649;48.090;9.754;2023-04-15T12:03:29;15.30;54.10
22966;DHT22;11649;48.090;9.754;2023-04-15T12:06:07;14.80;50.10
22966;DHT22;11649;48.090;9.754;2023-04-15T12:11:44;13.90;51.40
22966;DHT22;11649;48.090;9.754;2023-04-15T12:14:12;13.60;51.60
22966;DHT22;11649;48.090;9.754;2023-04-15T12:16:45;13.30;53.80
22966;DHT22;11649;48.090;9.754;2023-04-15T12:19:18;13.00;54.90
22966;DHT22;11649;48.090;9.754;2023-04-15T12:21:48;12.80;56.10
22966;DHT22;11649;48.090;9.754;2023-04-15T12:24:19;13.10;57.30
22966;DHT22;11649;48.090;9.754;2023-04-15T12:26:51;13.10;55.70
22966;DHT22;11649;48.090;9.754;2023-04-15T12:29:23;13.10;55.60
22966;DHT22;11649;48.090;9.754;2023-04-15T12:32:12;13.40;53.90
22966;DHT22;11649;48.090;9.754;2023-04-15T12:34:48;13.50;53.70
22966;DHT22;11649;48.090;9.754;2023-04-15T12:37:15;13.90;52.20
22966;DHT22;11649;48.090;9.754;2023-04-15T12:39:45;14.40;52.60
22966;DHT22;11649;48.090;9.754;2023-04-15T12:42:15;14.70;51.20
22966;DHT22;11649;48.090;9.754;2023-04-15T12:44:42;14.60;48.10
22966;DHT22;11649;48.090;9.754;2023-04-15T12:47:10;14.10;50.50
22966;DHT22;11649;48.090;9.754;2023-04-15T12:49:37;13.60;49.70
22966;DHT22;11649;48.090;9.754;2023-04-15T12:52:05;13.40;50.70
22966;DHT22;11649;48.090;9.754;2023-04-15T12:54:32;13.20;55.00
22966;DHT22;11649;48.090;9.754;2023-04-15T12:56:59;13.30;58.20
22966;DHT22;11649;48.090;9.754;2023-04-15T12:59:26;13.20;54.80
22966;DHT22;11649;48.090;9.754;2023-04-15T13:01:53;13.20;55.60
22966;DHT22;11649;48.090;9.754;2023-04-15T13:04:21;13.30;57.00
22966;DHT22;11649;48.090;9.754;2023-04-15T13:06:48;13.30;61.40
22966;DHT22;11649;48.090;9.754;2023-04-15T13:09:15;13.30;62.20
22966;DHT22;11649;48.090;9.754;2023-04-15T13:11:42;13.10;59.40
22966;DHT22;11649;48.090;9.754;2023-04-15T13:14:09;13.30;59.80
22966;DHT22;11649;48.090;9.754;2023-04-15T13:16:39;13.20;60.70
22966;DHT22;11649;48.090;9.754;2023-04-15T13:19:05;13.20;58.30
22966;DHT22;11649;48.090;9.754;2023-04-15T13:21:32;13.30;60.10
22966;DHT22;11649;48.090;9.754;2023-04-15T13:24:02;13.40;60.80
22966;DHT22;11649;48.090;9.754;2023-04-15T13:26:30;13.60;61.60
22966;DHT22;11649;48.090;9.754;2023-04-15T13:28:58;13.70;63.70
22966;DHT22;11649;48.090;9.754;2023-04-15T13:31:25;14.10;61.10
22966;DHT22;11649;48.090;9.754;2023-04-15T13:33:52;13.90;56.00
22966;DHT22;11649;48.090;9.754;2023-04-15T13:36:19;13.80;58.70
22966;DHT22;11649;48.090;9.754;2023-04-15T13:38:46;14.30;61.90
22966;DHT22;11649;48.090;9.754;2023-04-15T13:41:16;14.70;60.50
22966;DHT22;11649;48.090;9.754;2023-04-15T13:43:43;15.10;56.80
22966;DHT22;11649;48.090;9.754;2023-04-15T13:46:10;15.00;57.10
22966;DHT22;11649;48.090;9.754;2023-04-15T13:48:37;14.70;54.00
22966;DHT22;11649;48.090;9.754;2023-04-15T13:51:03;14.70;56.50
22966;DHT22;11649;48.090;9.754;2023-04-15T13:53:30;14.50;54.70
22966;DHT22;11649;48.090;9.754;2023-04-15T13:56:05;14.50;57.60
22966;DHT22;11649;48.090;9.754;2023-04-15T13:58:32;14.50;56.10
22966;DHT22;11649;48.090;9.754;2023-04-15T14:00:59;14.30;60.50
22966;DHT22;11649;48.090;9.754;2023-04-15T14:03:29;14.00;56.40
22966;DHT22;11649;48.090;9.754;2023-04-15T14:05:56;13.80;54.10
22966;DHT22;11649;48.090;9.754;2023-04-15T14:08:24;13.60;53.70
22966;DHT22;11649;48.090;9.754;2023-04-15T14:10:51;13.30;56.40
22966;DHT22;11649;48.090;9.754;2023-04-15T14:13:18;13.30;62.00
22966;DHT22;11649;48.090;9.754;2023-04-15T14:15:45;13.30;56.90
22966;DHT22;11649;48.090;9.754;2023-04-15T14:18:12;13.50;57.20
22966;DHT22;11649;48.090;9.754;2023-04-15T14:20:39;13.00;60.30
22966;DHT22;11649;48.090;9.754;2023-04-15T14:23:06;12.80;62.20
22966;DHT22;11649;48.090;9.754;2023-04-15T14:25:32;12.40;65.70
22966;DHT22;11649;48.090;9.754;2023-04-15T14:28:00;12.20;69.90
22966;DHT22;11649;48.090;9.754;2023-04-15T14:30:27;11.90;78.20
22966;DHT22;11649;48.090;9.754;2023-04-15T14:32:54;11.70;84.50
22966;DHT22;11649;48.090;9.754;2023-04-15T14:35:21;11.50;87.20
22966;DHT22;11649;48.090;9.754;2023-04-15T14:37:50;11.40;90.60
22966;DHT22;11649;48.090;9.754;2023-04-15T14:40:16;11.30;92.70
22966;DHT22;11649;48.090;9.754;2023-04-15T14:42:43;11.10;98.80
22966;DHT22;11649;48.090;9.754;2023-04-15T14:45:10;10.90;99.90
22966;DHT22;11649;48.090;9.754;2023-04-15T14:47:37;10.90;99.90
22966;DHT22;11649;48.090;9.754;2023-04-15T14:50:05;10.90;99.90
22966;DHT22;11649;48.090;9.754;2023-04-15T14:52:32;11.00;99.20
22966;DHT22;11649;48.090;9.754;2023-04-15T14:55:11;11.00;99.90
22966;DHT22;11649;48.090;9.754;2023-04-15T14:57:39;11.00;97.60
22966;DHT22;11649;48.090;9.754;2023-04-15T15:00:08;10.90;97.40
22966;DHT22;11649;48.090;9.754;2023-04-15T15:02:36;10.90;96.40
22966;DHT22;11649;48.090;9.754;2023-04-15T15:05:07;10.80;99.90
22966;DHT22;11649;48.090;9.754;2023-04-15T15:07:34;10.70;99.90
22966;DHT22;11649;48.090;9.754;2023-04-15T15:10:03;10.70;99.90
22966;DHT22;11649;48.090;9.754;2023-04-15T15:12:29;10.70;99.90
22966;DHT22;11649;48.090;9.754;2023-04-15T15:14:56;10.70;99.90
22966;DHT22;11649;48.090;9.754;2023-04-15T15:17:23;10.70;99.90
22966;DHT22;11649;48.090;9.754;2023-04-15T15:19:50;10.70;99.90
22966;DHT22;11649;48.090;9.754;2023-04-15T15:22:17;10.60;99.90
22966;DHT22;11649;48.090;9.754;2023-04-15T15:24:46;10.60;99.90
22966;DHT22;11649;48.090;9.754;2023-04-15T15:27:13;10.60;99.90
22966;DHT22;11649;48.090;9.754;2023-04-15T15:29:40;10.70;99.90
22966;DHT22;11649;48.090;9.754;2023-04-15T15:32:07;10.70;99.90
22966;DHT22;11649;48.090;9.754;2023-04-15T15:34:33;10.60;99.90
22966;DHT22;11649;48.090;9.754;2023-04-15T15:37:00;10.60;99.90
22966;DHT22;11649;48.090;9.754;2023-04-15T15:39:27;10.60;99.90
22966;DHT22;11649;48.090;9.754;2023-04-15T15:41:54;10.60;99.90
22966;DHT22;11649;48.090;9.754;2023-04-15T15:44:21;10.60;99.90
22966;DHT22;11649;48.090;9.754;2023-04-15T15:46:49;10.60;99.90
22966;DHT22;11649;48.090;9.754;2023-04-15T15:49:16;10.60;99.90
22966;DHT22;11649;48.090;9.754;2023-04-15T15:51:43;10.60;99.90
22966;DHT22;11649;48.090;9.754;2023-04-15T15:54:11;10.60;99.00
22966;DHT22;11649;48.090;9.754;2023-04-15T15:56:38;10.60;99.90
22966;DHT22;11649;48.090;9.754;2023-04-15T15:59:05;10.60;99.90